createdAt,value
2017-05-04T03:00:34.734Z,1022.08
2017-05-04T03:01:00.309Z,1022.05
2017-05-04T03:01:25.884Z,1022.09
2017-05-04T03:01:51.445Z,1022.05
2017-05-04T03:02:17.001Z,1022.07
2017-05-04T03:02:42.572Z,1022.1
2017-05-04T03:03:08.139Z,1022.06
2017-05-04T03:03:33.717Z,1022.12
2017-05-04T03:03:59.272Z,1022.09
2017-05-04T03:04:24.814Z,1022.1
2017-05-04T03:04:50.461Z,1022.1
2017-05-04T03:05:15.999Z,1022.05
2017-05-04T03:05:41.566Z,1022.09
2017-05-04T03:06:07.149Z,1022.09
2017-05-04T03:06:32.734Z,1022.08
2017-05-04T03:06:58.302Z,1022.08
2017-05-04T03:07:23.943Z,1022.04
2017-05-04T03:07:49.505Z,1022.08
2017-05-04T03:08:15.070Z,1022.08
2017-05-04T03:08:40.627Z,1022.05
2017-05-04T03:09:06.183Z,1022.04
2017-05-04T03:09:31.750Z,1022.08
2017-05-04T03:09:57.313Z,1022.08
2017-05-04T03:10:22.884Z,1022.09
2017-05-04T03:10:48.476Z,1022.06
2017-05-04T03:11:14.039Z,1022.05
2017-05-04T03:11:39.630Z,1022.05
2017-05-04T03:12:05.218Z,1022.04
2017-05-04T03:12:30.895Z,1022.05
2017-05-04T03:12:56.457Z,1022.07
2017-05-04T03:13:22.010Z,1022.03
2017-05-04T03:13:47.688Z,1022.07
2017-05-04T03:14:13.323Z,1022.02
2017-05-04T03:14:38.885Z,1022.05
2017-05-04T03:15:04.503Z,1022.03
2017-05-04T03:15:30.042Z,1022.03
2017-05-04T03:15:55.582Z,1022.02
2017-05-04T03:16:21.121Z,1022.08
2017-05-04T03:16:46.659Z,1022
2017-05-04T03:17:12.213Z,1022.04
2017-05-04T03:17:37.824Z,1022.07
2017-05-04T03:18:03.380Z,1022.06
2017-05-04T03:18:29.010Z,1022.05
2017-05-04T03:18:54.584Z,1022.06
2017-05-04T03:19:20.146Z,1022.03
2017-05-04T03:19:45.705Z,1022.07
2017-05-04T03:20:11.259Z,1022.05
2017-05-04T03:20:36.834Z,1022.04
2017-05-04T03:21:02.393Z,1022.09
2017-05-04T03:21:27.966Z,1022.01
2017-05-04T03:21:53.544Z,1022.05
2017-05-04T03:22:19.114Z,1022.08
2017-05-04T03:22:44.684Z,1022.1
2017-05-04T03:23:10.246Z,1022.03
2017-05-04T03:23:35.827Z,1022.07
2017-05-04T03:24:01.410Z,1022.08
2017-05-04T03:24:26.971Z,1022.06
2017-05-04T03:24:52.538Z,1022.03
2017-05-04T03:25:18.116Z,1022.04
2017-05-04T03:25:43.681Z,1022.04
2017-05-04T03:26:09.381Z,1022.05
2017-05-04T03:26:34.961Z,1022.05
2017-05-04T03:27:00.521Z,1022.04
2017-05-04T03:27:26.060Z,1022.02
2017-05-04T03:27:51.612Z,1022.02
2017-05-04T03:28:17.184Z,1022.04
2017-05-04T03:28:42.742Z,1022.02
2017-05-04T03:29:08.331Z,1022.03
2017-05-04T03:29:33.880Z,1022.04
2017-05-04T03:29:59.584Z,1022.01
2017-05-04T03:30:25.146Z,1022.01
2017-05-04T03:30:50.734Z,1022
2017-05-04T03:31:16.300Z,1022.02
2017-05-04T03:31:41.870Z,1022.05
2017-05-04T03:32:07.440Z,1022.04
2017-05-04T03:32:33.007Z,1022.08
2017-05-04T03:32:58.571Z,1022.04
2017-05-04T03:33:24.162Z,1022.06
2017-05-04T03:33:49.734Z,1022.07
2017-05-04T03:34:15.266Z,1022.06
2017-05-04T03:34:40.803Z,1022.06
2017-05-04T03:35:06.382Z,1022.05
2017-05-04T03:35:31.941Z,1022.06
2017-05-04T03:35:57.540Z,1022.04
2017-05-04T03:36:23.120Z,1022.06
2017-05-04T03:36:48.672Z,1022.07
2017-05-04T03:37:14.226Z,1022.03
2017-05-04T03:37:39.790Z,1022.07
2017-05-04T03:38:05.339Z,1022.1
2017-05-04T03:38:30.880Z,1022.08
2017-05-04T03:38:56.423Z,1022.06
2017-05-04T03:39:21.990Z,1022.06
2017-05-04T03:39:47.551Z,1022.07
2017-05-04T03:40:13.145Z,1022.07
2017-05-04T03:40:38.691Z,1022.07
2017-05-04T03:41:04.261Z,1022.07
2017-05-04T03:41:29.823Z,1022.04
2017-05-04T03:41:55.417Z,1022.05
2017-05-04T03:42:21.059Z,1021.99
2017-05-04T03:42:46.632Z,1022.05
2017-05-04T03:43:12.252Z,1022.02
2017-05-04T03:44:31.183Z,1022.04
2017-05-04T03:44:56.762Z,1022.04
2017-05-04T03:45:22.332Z,1022.02
2017-05-04T03:45:47.896Z,1022.08
2017-05-04T03:46:13.473Z,1022.08
2017-05-04T03:46:39.024Z,1022.06
2017-05-04T03:47:04.581Z,1022.1
2017-05-04T03:47:30.142Z,1022.1
2017-05-04T03:47:55.776Z,1022.09
2017-05-04T03:48:21.352Z,1022.09
2017-05-04T03:48:46.925Z,1022.08
2017-05-04T03:49:12.628Z,1022.12
2017-05-04T03:49:38.212Z,1022.09
2017-05-04T03:50:03.775Z,1022.09
2017-05-04T03:50:29.385Z,1022.13
2017-05-04T03:50:54.944Z,1022.1
2017-05-04T03:51:20.504Z,1022.08
2017-05-04T03:51:46.075Z,1022.08
2017-05-04T03:52:11.646Z,1022.07
2017-05-04T03:52:37.204Z,1022.03
2017-05-04T03:53:02.833Z,1022.07
2017-05-04T03:53:28.393Z,1022.05
2017-05-04T03:53:53.965Z,1022.07
2017-05-04T03:54:19.624Z,1022.05
2017-05-04T03:55:38.524Z,1022.05
2017-05-04T03:56:04.080Z,1022.05
2017-05-04T03:56:29.656Z,1022.03
2017-05-04T03:56:55.233Z,1022.04
2017-05-04T03:57:20.797Z,1021.98
2017-05-04T03:57:46.365Z,1022.04
2017-05-04T03:58:11.931Z,1022.04
2017-05-04T03:58:37.504Z,1022.11
2017-05-04T03:59:03.098Z,1022.08
2017-05-04T03:59:28.653Z,1022.05
2017-05-04T03:59:54.305Z,1022.07
2017-05-04T04:00:19.857Z,1022.09
2017-05-04T04:00:45.413Z,1022.05
2017-05-04T04:01:10.964Z,1022.06
2017-05-04T04:01:36.526Z,1022.01
2017-05-04T04:02:02.099Z,1022.07
2017-05-04T04:02:27.659Z,1022.04
2017-05-04T04:02:53.212Z,1022.06
2017-05-04T04:03:18.783Z,1022.06
2017-05-04T04:03:44.352Z,1022.04
2017-05-04T04:04:09.897Z,1022.03
2017-05-04T04:04:35.451Z,1022.08
2017-05-04T04:05:01.096Z,1022.07
2017-05-04T04:05:26.665Z,1022.11
2017-05-04T04:05:52.208Z,1022.12
2017-05-04T04:06:17.888Z,1022.13
2017-05-04T04:06:43.451Z,1022.09
2017-05-04T04:07:08.999Z,1022.1
2017-05-04T04:07:34.575Z,1022.11
2017-05-04T04:08:00.131Z,1022.1
2017-05-04T04:08:25.671Z,1022.09
2017-05-04T04:08:51.230Z,1022.1
2017-05-04T04:09:16.762Z,1022.1
2017-05-04T04:09:42.325Z,1022.08
2017-05-04T04:10:07.870Z,1022.12
2017-05-04T04:10:33.419Z,1022.12
2017-05-04T04:10:59.046Z,1022.11
2017-05-04T04:11:24.601Z,1022.1
2017-05-04T04:11:50.161Z,1022.1
2017-05-04T04:12:15.799Z,1022.1
2017-05-04T04:12:41.341Z,1022.14
2017-05-04T04:13:06.888Z,1022.13
2017-05-04T04:13:32.432Z,1022.14
2017-05-04T04:13:57.989Z,1022.11
2017-05-04T04:14:23.530Z,1022.1
2017-05-04T04:14:49.184Z,1022.1
2017-05-04T04:15:14.716Z,1022.08
2017-05-04T04:15:40.338Z,1022.07
2017-05-04T04:16:05.914Z,1022.04
2017-05-04T04:16:31.494Z,1022.05
2017-05-04T04:16:57.062Z,1022.04
2017-05-04T04:17:22.634Z,1022.06
2017-05-04T04:17:48.197Z,1022.04
2017-05-04T04:18:13.802Z,1022.06
2017-05-04T04:18:39.357Z,1022.06
2017-05-04T04:19:04.917Z,1022.04
2017-05-04T04:19:30.467Z,1022.09
2017-05-04T04:19:56.040Z,1022.07
2017-05-04T04:20:21.624Z,1022.08
2017-05-04T04:20:47.192Z,1022.09
2017-05-04T04:21:12.756Z,1022.09
2017-05-04T04:21:38.346Z,1022.06
2017-05-04T04:22:03.904Z,1022.09
2017-05-04T04:22:29.453Z,1022.06
2017-05-04T04:22:55.031Z,1022.05
2017-05-04T04:23:20.578Z,1022.1
2017-05-04T04:23:46.130Z,1022.1
2017-05-04T04:24:11.683Z,1022.04
2017-05-04T04:24:37.230Z,1022.08
2017-05-04T04:25:02.782Z,1022.06
2017-05-04T04:25:28.332Z,1022.05
2017-05-04T04:25:53.876Z,1022.08
2017-05-04T04:26:19.422Z,1022.09
2017-05-04T04:26:45.070Z,1022.07
2017-05-04T04:27:10.638Z,1022.06
2017-05-04T04:27:36.198Z,1022.11
2017-05-04T04:28:01.770Z,1022.04
2017-05-04T04:28:27.344Z,1022.1
2017-05-04T04:28:52.908Z,1022.08
2017-05-04T04:29:18.501Z,1022.07
2017-05-04T04:29:44.078Z,1022.02
2017-05-04T04:30:09.637Z,1022.05
2017-05-04T04:30:35.196Z,1022.03
2017-05-04T04:31:00.759Z,1022
2017-05-04T04:31:26.322Z,1022.03
2017-05-04T04:31:52.016Z,1022.01
2017-05-04T04:32:17.574Z,1022.06
2017-05-04T04:32:43.224Z,1022
2017-05-04T04:33:08.794Z,1022.02
2017-05-04T04:33:34.352Z,1022
2017-05-04T04:33:59.988Z,1022.01
2017-05-04T04:34:25.559Z,1022.01
2017-05-04T04:34:51.172Z,1021.98
2017-05-04T04:35:16.738Z,1022
2017-05-04T04:36:30.488Z,1021.98
2017-05-04T04:36:56.044Z,1021.99
2017-05-04T04:37:21.602Z,1022.02
2017-05-04T04:37:47.333Z,1021.98
2017-05-04T04:38:12.903Z,1021.95
2017-05-04T04:38:38.474Z,1022
2017-05-04T04:39:04.033Z,1021.98
2017-05-04T04:39:29.600Z,1022.04
2017-05-04T04:39:55.184Z,1022.02
2017-05-04T04:40:20.733Z,1021.96
2017-05-04T04:40:46.285Z,1021.99
2017-05-04T04:41:11.844Z,1021.97
2017-05-04T04:41:37.399Z,1021.97
2017-05-04T04:42:02.951Z,1021.99
2017-05-04T04:42:28.543Z,1021.95
2017-05-04T04:43:37.255Z,1021.96
2017-05-04T04:44:02.833Z,1021.98
2017-05-04T04:44:28.393Z,1021.98
2017-05-04T04:44:53.964Z,1021.97
2017-05-04T04:45:19.622Z,1021.98
2017-05-04T04:45:45.212Z,1021.97
2017-05-04T04:46:10.769Z,1022
2017-05-04T04:46:36.344Z,1022.05
2017-05-04T04:47:01.888Z,1022.01
2017-05-04T04:47:27.453Z,1022.01
2017-05-04T04:47:53.192Z,1022.09
2017-05-04T04:48:18.819Z,1022
2017-05-04T04:48:44.374Z,1022.04
2017-05-04T04:49:09.938Z,1022.01
2017-05-04T04:49:35.610Z,1021.96
2017-05-04T04:50:01.201Z,1021.99
2017-05-04T04:50:26.763Z,1022.1
2017-05-04T04:50:52.466Z,1022.07
2017-05-04T04:51:18.034Z,1022.04
2017-05-04T04:51:43.611Z,1022.07
2017-05-04T04:52:09.175Z,1022.01
2017-05-04T04:52:34.740Z,1022.07
2017-05-04T04:53:00.527Z,1022.05
2017-05-04T04:53:26.091Z,1022.08
2017-05-04T04:53:51.652Z,1022.05
2017-05-04T04:54:17.228Z,1022.07
2017-05-04T04:54:42.786Z,1022.11
2017-05-04T04:55:08.380Z,1022.14
2017-05-04T04:55:34.060Z,1022.16
2017-05-04T04:55:59.641Z,1022.13
2017-05-04T04:56:25.276Z,1022.11
2017-05-04T04:56:50.821Z,1022.11
2017-05-04T04:57:16.391Z,1022.14
2017-05-04T04:57:41.981Z,1022.15
2017-05-04T04:58:07.532Z,1022.14
2017-05-04T04:58:33.109Z,1022.18
2017-05-04T04:58:58.662Z,1022.14
2017-05-04T04:59:24.210Z,1022.16
2017-05-04T04:59:49.788Z,1022.13
2017-05-04T05:00:15.369Z,1022.13
2017-05-04T05:00:40.947Z,1022.15
2017-05-04T05:01:06.509Z,1022.18
2017-05-04T05:01:32.064Z,1022.11
2017-05-04T05:01:57.643Z,1022.11
2017-05-04T05:02:23.214Z,1022.13
2017-05-04T05:02:48.802Z,1022.12
2017-05-04T05:03:14.360Z,1022.07
2017-05-04T05:03:39.929Z,1022.13
2017-05-04T05:04:05.614Z,1022.07
2017-05-04T05:04:31.188Z,1022.11
2017-05-04T05:04:56.748Z,1022.12
2017-05-04T05:05:22.302Z,1022.07
2017-05-04T05:05:47.889Z,1022.1
2017-05-04T05:06:13.471Z,1022.1
2017-05-04T05:06:39.037Z,1022.13
2017-05-04T05:07:04.605Z,1022.09
2017-05-04T05:07:30.185Z,1022.1
2017-05-04T05:07:55.803Z,1022.06
2017-05-04T05:08:21.406Z,1022.11
2017-05-04T05:08:46.952Z,1022.1
2017-05-04T05:09:12.595Z,1022.09
2017-05-04T05:09:38.123Z,1022.08
2017-05-04T05:10:03.692Z,1022.06
2017-05-04T05:10:29.263Z,1022.06
2017-05-04T05:10:55.003Z,1022.08
2017-05-04T05:11:20.560Z,1022.11
2017-05-04T05:11:46.135Z,1022.06
2017-05-04T05:12:11.716Z,1022.04
2017-05-04T05:12:37.294Z,1022.07
2017-05-04T05:13:02.856Z,1022.02
2017-05-04T05:13:28.438Z,1022.06
2017-05-04T05:13:54.076Z,1022.04
2017-05-04T05:14:19.673Z,1022.01
2017-05-04T05:14:45.226Z,1022.04
2017-05-04T05:15:10.783Z,1022.05
2017-05-04T05:15:36.333Z,1021.99
2017-05-04T05:16:01.900Z,1022.04
2017-05-04T05:16:27.453Z,1022.03
2017-05-04T05:16:53.023Z,1022.05
2017-05-04T05:17:18.582Z,1022
2017-05-04T05:17:44.141Z,1022.01
2017-05-04T05:18:09.704Z,1022.02
2017-05-04T05:18:35.305Z,1022.04
2017-05-04T05:19:00.858Z,1022.04
2017-05-04T05:19:26.519Z,1022.01
2017-05-04T05:19:52.084Z,1022.05
2017-05-04T05:20:17.666Z,1021.97
2017-05-04T05:20:43.212Z,1021.99
2017-05-04T05:21:08.794Z,1021.99
2017-05-04T05:21:34.360Z,1021.98
2017-05-04T05:21:59.939Z,1021.98
2017-05-04T05:22:25.502Z,1021.97
2017-05-04T05:22:51.060Z,1022.03
2017-05-04T05:23:16.631Z,1022.01
2017-05-04T05:23:42.216Z,1021.94
2017-05-04T05:24:07.796Z,1021.93
2017-05-04T05:24:33.376Z,1021.94
2017-05-04T05:24:58.964Z,1021.98
2017-05-04T05:25:24.544Z,1021.92
2017-05-04T05:25:50.101Z,1021.96
2017-05-04T05:26:15.724Z,1021.96
2017-05-04T05:26:41.285Z,1021.94
2017-05-04T05:27:06.839Z,1021.96
2017-05-04T05:27:32.380Z,1022
2017-05-04T05:27:57.951Z,1022.01
2017-05-04T05:28:23.524Z,1021.99
2017-05-04T05:28:49.061Z,1022.03
2017-05-04T05:29:14.624Z,1022.03
2017-05-04T05:29:40.243Z,1022.02
2017-05-04T05:30:05.872Z,1022.06
2017-05-04T05:30:31.423Z,1022.05
2017-05-04T05:30:56.974Z,1022.03
2017-05-04T05:31:22.521Z,1022.03
2017-05-04T05:31:48.122Z,1022.05
2017-05-04T05:32:13.754Z,1022.04
2017-05-04T05:32:39.304Z,1022.03
2017-05-04T05:33:04.870Z,1022.03
2017-05-04T05:33:30.433Z,1022.03
2017-05-04T05:33:56.026Z,1022.04
2017-05-04T05:34:21.585Z,1022
2017-05-04T05:34:47.150Z,1022.02
2017-05-04T05:35:12.726Z,1022.03
2017-05-04T05:35:38.303Z,1022.03
2017-05-04T05:36:03.886Z,1022.01
2017-05-04T05:36:29.446Z,1022.01
2017-05-04T05:36:55.015Z,1022
2017-05-04T05:37:20.584Z,1022.02
2017-05-04T05:37:46.351Z,1022.03
2017-05-04T05:38:11.914Z,1022.05
2017-05-04T05:38:37.467Z,1022.05
2017-05-04T05:39:03.022Z,1022.02
2017-05-04T05:39:28.571Z,1022.04
2017-05-04T05:40:32.164Z,1022.05
2017-05-04T05:41:30.244Z,1022.04
2017-05-04T05:41:55.796Z,1022.04
2017-05-04T05:42:21.363Z,1022.05
2017-05-04T05:42:47.049Z,1022.01
2017-05-04T05:43:12.674Z,1022.05
2017-05-04T05:43:38.266Z,1022.06
2017-05-04T05:44:03.838Z,1022.03
2017-05-04T05:44:29.393Z,1022.05
2017-05-04T05:44:54.990Z,1022.08
2017-05-04T05:45:20.587Z,1022.06
2017-05-04T05:45:46.140Z,1022.03
2017-05-04T05:46:11.709Z,1022.06
2017-05-04T05:46:37.313Z,1022.03
2017-05-04T05:47:02.888Z,1022.08
2017-05-04T05:47:28.439Z,1022.05
2017-05-04T05:47:54.073Z,1022.02
2017-05-04T05:48:19.639Z,1022.05
2017-05-04T05:48:45.204Z,1022.12
2017-05-04T05:49:10.976Z,1022.03
2017-05-04T05:49:36.640Z,1022.03
2017-05-04T05:50:02.285Z,1022.06
2017-05-04T05:50:27.852Z,1022.05
2017-05-04T05:50:53.550Z,1022.06
2017-05-04T05:51:19.094Z,1022.09
2017-05-04T05:51:44.631Z,1022.02
2017-05-04T05:52:10.284Z,1022.06
2017-05-04T05:52:35.859Z,1022.06
2017-05-04T05:53:01.396Z,1022.04
2017-05-04T05:53:26.942Z,1022.04
2017-05-04T05:53:52.503Z,1022.01
2017-05-04T05:54:18.064Z,1022.01
2017-05-04T05:54:43.636Z,1022.01
2017-05-04T05:55:09.269Z,1022.03
2017-05-04T05:55:34.843Z,1022.03
2017-05-04T05:56:00.397Z,1022.04
2017-05-04T05:56:25.949Z,1022.02
2017-05-04T05:56:51.507Z,1022.03
2017-05-04T05:57:17.069Z,1022.07
2017-05-04T05:57:42.669Z,1022.08
2017-05-04T05:58:08.225Z,1022.11
2017-05-04T05:58:33.885Z,1022.08
2017-05-04T05:58:59.454Z,1022.08
2017-05-04T05:59:25.002Z,1022.09
2017-05-04T05:59:50.630Z,1022.13
2017-05-04T06:01:09.741Z,1022.18
2017-05-04T06:01:35.295Z,1022.17
2017-05-04T06:02:00.858Z,1022.13
2017-05-04T06:02:26.426Z,1022.14
2017-05-04T06:02:52.086Z,1022.19
2017-05-04T06:03:17.667Z,1022.17
2017-05-04T06:03:43.287Z,1022.16
2017-05-04T06:04:08.995Z,1022.17
2017-05-04T06:04:34.549Z,1022.16
2017-05-04T06:05:00.104Z,1022.19
2017-05-04T06:05:25.685Z,1022.15
2017-05-04T06:05:51.258Z,1022.18
2017-05-04T06:06:16.855Z,1022.21
2017-05-04T06:06:42.445Z,1022.24
2017-05-04T06:07:08.005Z,1022.24
2017-05-04T06:07:33.647Z,1022.24
2017-05-04T06:07:59.230Z,1022.22
2017-05-04T06:08:24.806Z,1022.24
2017-05-04T06:08:50.423Z,1022.22
2017-05-04T06:09:15.987Z,1022.22
2017-05-04T06:09:41.545Z,1022.26
2017-05-04T06:10:07.105Z,1022.21
2017-05-04T06:10:32.665Z,1022.21
2017-05-04T06:10:58.216Z,1022.24
2017-05-04T06:11:23.784Z,1022.21
2017-05-04T06:11:49.365Z,1022.24
2017-05-04T06:12:14.921Z,1022.24
2017-05-04T06:12:40.507Z,1022.29
2017-05-04T06:13:06.098Z,1022.27
2017-05-04T06:13:31.655Z,1022.25
2017-05-04T06:14:45.425Z,1022.26
2017-05-04T06:15:10.993Z,1022.23
2017-05-04T06:15:36.568Z,1022.26
2017-05-04T06:16:02.121Z,1022.29
2017-05-04T06:16:27.717Z,1022.32
2017-05-04T06:16:53.274Z,1022.31
2017-05-04T06:17:18.824Z,1022.3
2017-05-04T06:17:44.376Z,1022.26
2017-05-04T06:18:10.052Z,1022.26
2017-05-04T06:18:35.627Z,1022.25
2017-05-04T06:19:01.177Z,1022.3
2017-05-04T06:19:26.733Z,1022.28
2017-05-04T06:19:52.312Z,1022.23
2017-05-04T06:20:17.882Z,1022.32
2017-05-04T06:20:43.468Z,1022.28
2017-05-04T06:21:09.029Z,1022.24
2017-05-04T06:21:34.634Z,1022.29
2017-05-04T06:22:00.201Z,1022.26
2017-05-04T06:22:25.760Z,1022.25
2017-05-04T06:22:51.325Z,1022.29
2017-05-04T06:23:16.991Z,1022.33
2017-05-04T06:23:42.575Z,1022.29
2017-05-04T06:24:08.123Z,1022.27
2017-05-04T06:24:33.692Z,1022.35
2017-05-04T06:24:59.260Z,1022.33
2017-05-04T06:25:24.826Z,1022.23
2017-05-04T06:25:50.385Z,1022.29
2017-05-04T06:26:15.936Z,1022.29
2017-05-04T06:26:41.596Z,1022.33
2017-05-04T06:27:07.149Z,1022.28
2017-05-04T06:27:32.722Z,1022.31
2017-05-04T06:27:58.286Z,1022.31
2017-05-04T06:28:23.842Z,1022.33
2017-05-04T06:28:49.391Z,1022.31
2017-05-04T06:29:14.971Z,1022.34
2017-05-04T06:29:40.576Z,1022.38
2017-05-04T06:30:06.128Z,1022.35
2017-05-04T06:30:31.690Z,1022.35
2017-05-04T06:30:57.257Z,1022.37
2017-05-04T06:31:22.814Z,1022.38
2017-05-04T06:31:48.385Z,1022.38
2017-05-04T06:32:13.956Z,1022.39
2017-05-04T06:32:39.526Z,1022.36
2017-05-04T06:33:05.117Z,1022.36
2017-05-04T06:33:30.687Z,1022.35
2017-05-04T06:33:56.247Z,1022.4
2017-05-04T06:34:21.823Z,1022.41
2017-05-04T06:34:48.367Z,1022.33
2017-05-04T06:35:13.925Z,1022.35
2017-05-04T06:35:39.476Z,1022.35
2017-05-04T06:36:05.119Z,1022.37
2017-05-04T06:36:30.682Z,1022.35
2017-05-04T06:36:56.298Z,1022.32
2017-05-04T06:37:21.859Z,1022.34
2017-05-04T06:37:47.407Z,1022.3
2017-05-04T06:38:12.942Z,1022.34
2017-05-04T06:38:38.494Z,1022.31
2017-05-04T06:39:04.051Z,1022.34
2017-05-04T06:39:29.612Z,1022.32
2017-05-04T06:39:55.179Z,1022.36
2017-05-04T06:40:20.753Z,1022.36
2017-05-04T06:40:46.277Z,1022.36
2017-05-04T06:41:11.836Z,1022.36
2017-05-04T06:41:37.402Z,1022.36
2017-05-04T06:42:02.961Z,1022.35
2017-05-04T06:42:28.529Z,1022.36
2017-05-04T06:42:54.090Z,1022.35
2017-05-04T06:43:19.654Z,1022.37
2017-05-04T06:43:45.206Z,1022.34
2017-05-04T06:44:10.797Z,1022.38
2017-05-04T06:44:36.333Z,1022.39
2017-05-04T06:45:01.885Z,1022.41
2017-05-04T06:45:27.465Z,1022.4
2017-05-04T06:45:53.003Z,1022.31
2017-05-04T06:46:18.553Z,1022.4
2017-05-04T06:46:44.131Z,1022.38
2017-05-04T06:47:09.679Z,1022.34
2017-05-04T06:47:35.234Z,1022.35
2017-05-04T06:48:00.802Z,1022.33
2017-05-04T06:48:59.218Z,1022.41
2017-05-04T06:49:24.787Z,1022.31
2017-05-04T06:49:50.426Z,1022.33
2017-05-04T06:50:15.989Z,1022.34
2017-05-04T06:50:41.695Z,1022.38
2017-05-04T06:51:07.254Z,1022.34
2017-05-04T06:51:32.807Z,1022.36
2017-05-04T06:51:58.381Z,1022.34
2017-05-04T06:52:24.021Z,1022.33
2017-05-04T06:52:49.599Z,1022.33
2017-05-04T06:53:15.159Z,1022.34
2017-05-04T06:53:40.797Z,1022.32
2017-05-04T06:54:06.353Z,1022.33
2017-05-04T06:54:31.922Z,1022.33
2017-05-04T06:54:57.505Z,1022.37
2017-05-04T06:55:23.093Z,1022.32
2017-05-04T06:55:48.664Z,1022.35
2017-05-04T06:56:14.266Z,1022.37
2017-05-04T06:56:39.821Z,1022.36
2017-05-04T06:57:05.387Z,1022.36
2017-05-04T06:57:30.961Z,1022.3
2017-05-04T06:57:56.517Z,1022.33
2017-05-04T06:58:22.087Z,1022.36
2017-05-04T06:58:47.775Z,1022.41
2017-05-04T06:59:13.394Z,1022.31
2017-05-04T06:59:38.965Z,1022.4
2017-05-04T07:00:04.511Z,1022.32
2017-05-04T07:00:30.135Z,1022.33
2017-05-04T07:00:55.695Z,1022.36
2017-05-04T07:01:21.249Z,1022.34
2017-05-04T07:01:46.800Z,1022.37
2017-05-04T07:02:12.361Z,1022.34
2017-05-04T07:02:37.928Z,1022.36
2017-05-04T07:03:03.496Z,1022.37
2017-05-04T07:03:29.053Z,1022.37
2017-05-04T07:03:54.610Z,1022.38
2017-05-04T07:04:20.181Z,1022.42
2017-05-04T07:04:45.745Z,1022.39
2017-05-04T07:05:11.354Z,1022.35
2017-05-04T07:05:36.912Z,1022.38
2017-05-04T07:06:02.462Z,1022.4
2017-05-04T07:06:28.032Z,1022.41
2017-05-04T07:06:53.593Z,1022.43
2017-05-04T07:07:19.162Z,1022.46
2017-05-04T07:07:44.706Z,1022.44
2017-05-04T07:08:10.275Z,1022.44
2017-05-04T07:08:35.844Z,1022.45
2017-05-04T07:09:01.448Z,1022.42
2017-05-04T07:09:27.072Z,1022.41
2017-05-04T07:09:52.760Z,1022.46
2017-05-04T07:10:18.337Z,1022.5
2017-05-04T07:10:43.896Z,1022.43
2017-05-04T07:11:09.862Z,1022.42
2017-05-04T07:11:35.421Z,1022.46
2017-05-04T07:12:00.984Z,1022.45
2017-05-04T07:12:26.553Z,1022.46
2017-05-04T07:12:52.125Z,1022.48
2017-05-04T07:13:17.763Z,1022.48
2017-05-04T07:13:43.339Z,1022.44
2017-05-04T07:14:08.884Z,1022.46
2017-05-04T07:14:34.455Z,1022.46
2017-05-04T07:15:00.096Z,1022.46
2017-05-04T07:15:25.651Z,1022.52
2017-05-04T07:15:51.217Z,1022.47
2017-05-04T07:16:16.783Z,1022.52
2017-05-04T07:16:42.345Z,1022.49
2017-05-04T07:17:07.984Z,1022.46
2017-05-04T07:17:33.557Z,1022.43
2017-05-04T07:17:59.112Z,1022.46
2017-05-04T07:18:24.663Z,1022.45
2017-05-04T07:18:50.244Z,1022.47
2017-05-04T07:19:15.792Z,1022.44
2017-05-04T07:19:41.349Z,1022.5
2017-05-04T07:20:06.913Z,1022.43
2017-05-04T07:20:32.505Z,1022.48
2017-05-04T07:20:58.071Z,1022.5
2017-05-04T07:21:23.654Z,1022.51
2017-05-04T07:21:49.208Z,1022.43
2017-05-04T07:22:14.761Z,1022.48
2017-05-04T07:22:40.325Z,1022.47
2017-05-04T07:23:05.885Z,1022.47
2017-05-04T07:23:31.453Z,1022.49
2017-05-04T07:23:57.004Z,1022.52
2017-05-04T07:24:22.704Z,1022.47
2017-05-04T07:24:48.263Z,1022.49
2017-05-04T07:25:13.828Z,1022.54
2017-05-04T07:25:39.529Z,1022.51
2017-05-04T07:26:05.134Z,1022.51
2017-05-04T07:26:30.709Z,1022.5
2017-05-04T07:26:56.329Z,1022.49
2017-05-04T07:27:21.930Z,1022.54
2017-05-04T07:27:47.485Z,1022.54
2017-05-04T07:28:13.059Z,1022.5
2017-05-04T07:28:38.621Z,1022.46
2017-05-04T07:29:37.314Z,1022.49
2017-05-04T07:30:02.868Z,1022.5
2017-05-04T07:30:28.434Z,1022.51
2017-05-04T07:30:54.036Z,1022.52
2017-05-04T07:31:19.600Z,1022.47
2017-05-04T07:31:45.158Z,1022.54
2017-05-04T07:32:10.711Z,1022.52
2017-05-04T07:32:36.288Z,1022.53
2017-05-04T07:33:01.843Z,1022.51
2017-05-04T07:33:27.427Z,1022.51
2017-05-04T07:33:53.077Z,1022.51
2017-05-04T07:34:18.682Z,1022.51
2017-05-04T07:34:44.252Z,1022.55
2017-05-04T07:35:09.806Z,1022.55
2017-05-04T07:35:35.379Z,1022.52
2017-05-04T07:36:00.957Z,1022.58
2017-05-04T07:36:26.501Z,1022.56
2017-05-04T07:36:52.058Z,1022.55
2017-05-04T07:37:17.621Z,1022.55
2017-05-04T07:37:43.182Z,1022.58
2017-05-04T07:38:08.745Z,1022.53
2017-05-04T07:38:34.293Z,1022.51
2017-05-04T07:38:59.856Z,1022.53
2017-05-04T07:39:25.404Z,1022.48
2017-05-04T07:39:50.970Z,1022.53
2017-05-04T07:40:16.534Z,1022.53
2017-05-04T07:40:42.162Z,1022.55
2017-05-04T07:41:07.725Z,1022.56
2017-05-04T07:41:33.295Z,1022.59
2017-05-04T07:41:58.962Z,1022.53
2017-05-04T07:42:24.574Z,1022.53
2017-05-04T07:42:50.134Z,1022.55
2017-05-04T07:44:41.515Z,1022.5
2017-05-04T07:45:07.175Z,1022.53
2017-05-04T07:45:32.754Z,1022.53
2017-05-04T07:45:58.344Z,1022.55
2017-05-04T07:46:23.910Z,1022.56
2017-05-04T07:46:49.484Z,1022.55
2017-05-04T07:47:15.039Z,1022.55
2017-05-04T07:47:40.611Z,1022.54
2017-05-04T07:48:06.164Z,1022.58
2017-05-04T07:48:31.764Z,1022.55
2017-05-04T07:48:57.325Z,1022.59
2017-05-04T07:49:22.889Z,1022.56
2017-05-04T07:49:48.483Z,1022.57
2017-05-04T07:50:14.063Z,1022.58
2017-05-04T07:50:39.616Z,1022.58
2017-05-04T07:51:05.152Z,1022.59
2017-05-04T07:51:30.712Z,1022.62
2017-05-04T07:51:56.262Z,1022.55
2017-05-04T07:52:21.877Z,1022.58
2017-05-04T07:52:47.432Z,1022.54
2017-05-04T07:53:12.991Z,1022.59
2017-05-04T07:53:38.564Z,1022.58
2017-05-04T07:54:04.110Z,1022.58
2017-05-04T07:54:29.658Z,1022.55
2017-05-04T07:55:33.203Z,1022.59
2017-05-04T07:55:58.776Z,1022.61
2017-05-04T07:56:24.344Z,1022.59
2017-05-04T07:56:49.905Z,1022.57
2017-05-04T07:57:15.672Z,1022.57
2017-05-04T07:57:41.218Z,1022.57
2017-05-04T07:58:06.773Z,1022.61
2017-05-04T07:58:32.379Z,1022.56
2017-05-04T07:58:57.905Z,1022.56
2017-05-04T07:59:23.463Z,1022.59
2017-05-04T07:59:49.015Z,1022.58
2017-05-04T08:00:14.660Z,1022.57
2017-05-04T08:00:40.283Z,1022.58
2017-05-04T08:01:05.845Z,1022.6
2017-05-04T08:01:31.435Z,1022.57
2017-05-04T08:01:57.022Z,1022.6
2017-05-04T08:02:22.598Z,1022.57
2017-05-04T08:02:48.151Z,1022.6
2017-05-04T08:03:13.728Z,1022.62
2017-05-04T08:03:39.294Z,1022.63
2017-05-04T08:04:04.925Z,1022.62
2017-05-04T08:04:30.472Z,1022.58
2017-05-04T08:04:56.074Z,1022.58
2017-05-04T08:05:21.692Z,1022.59
2017-05-04T08:05:47.281Z,1022.59
2017-05-04T08:06:12.852Z,1022.57
2017-05-04T08:06:38.416Z,1022.6
2017-05-04T08:07:04.047Z,1022.59
2017-05-04T08:07:29.600Z,1022.57
2017-05-04T08:07:55.170Z,1022.59
2017-05-04T08:08:20.778Z,1022.6
2017-05-04T08:08:46.370Z,1022.59
2017-05-04T08:09:11.913Z,1022.62
2017-05-04T08:09:37.488Z,1022.65
2017-05-04T08:10:03.045Z,1022.64
2017-05-04T08:10:28.613Z,1022.63
2017-05-04T08:10:54.171Z,1022.64
2017-05-04T08:11:19.754Z,1022.63
2017-05-04T08:11:45.542Z,1022.67
2017-05-04T08:12:11.112Z,1022.67
2017-05-04T08:12:36.655Z,1022.63
2017-05-04T08:13:02.271Z,1022.66
2017-05-04T08:13:27.830Z,1022.67
2017-05-04T08:13:53.432Z,1022.64
2017-05-04T08:14:18.972Z,1022.65
2017-05-04T08:14:44.565Z,1022.68
2017-05-04T08:15:10.113Z,1022.67
2017-05-04T08:15:35.687Z,1022.74
2017-05-04T08:16:01.304Z,1022.7
2017-05-04T08:16:26.874Z,1022.68
2017-05-04T08:16:52.441Z,1022.69
2017-05-04T08:17:18.021Z,1022.67
2017-05-04T08:17:43.586Z,1022.72
2017-05-04T08:18:09.194Z,1022.65
2017-05-04T08:18:34.880Z,1022.68
2017-05-04T08:19:00.458Z,1022.72
2017-05-04T08:19:26.119Z,1022.66
2017-05-04T08:19:51.694Z,1022.7
2017-05-04T08:20:17.279Z,1022.67